createdAt,value
2023-03-22T00:01:58.708Z,8.92
2023-03-22T00:04:26.329Z,8.82
2023-03-22T00:06:53.282Z,8.80
2023-03-22T00:09:19.891Z,8.74
2023-03-22T00:11:50.726Z,8.61
2023-03-22T00:14:19.662Z,8.61
2023-03-22T00:16:46.320Z,8.51
2023-03-22T00:19:16.454Z,8.42
2023-03-22T00:21:42.903Z,8.45
2023-03-22T00:24:09.334Z,8.38
2023-03-22T00:26:35.737Z,8.26
2023-03-22T00:29:02.123Z,8.28
2023-03-22T00:31:28.601Z,8.33
2023-03-22T00:33:55.578Z,8.20
2023-03-22T00:36:22.038Z,8.13
2023-03-22T00:38:48.425Z,8.04
2023-03-22T00:41:17.297Z,8.14
2023-03-22T00:43:43.905Z,8.07
2023-03-22T00:46:11.438Z,7.97
2023-03-22T00:48:39.382Z,8.11
2023-03-22T00:51:06.102Z,7.96
2023-03-22T00:53:36.516Z,7.98
2023-03-22T00:56:06.582Z,7.79
2023-03-22T00:58:33.189Z,7.75
2023-03-22T01:00:59.761Z,7.77
2023-03-22T01:03:26.331Z,7.69
2023-03-22T01:05:56.687Z,7.56
2023-03-22T01:08:23.919Z,7.68
2023-03-22T01:10:50.680Z,7.57
2023-03-22T01:13:18.048Z,7.58
2023-03-22T01:15:44.864Z,7.67
2023-03-22T01:18:11.369Z,7.41
2023-03-22T01:20:38.257Z,7.27
2023-03-22T01:23:04.850Z,7.24
2023-03-22T01:25:31.489Z,7.32
2023-03-22T01:27:58.004Z,7.28
2023-03-22T01:30:24.610Z,7.28
2023-03-22T01:32:51.291Z,7.35
2023-03-22T01:35:17.756Z,7.20
2023-03-22T01:37:44.333Z,7.17
2023-03-22T01:40:12.508Z,7.15
2023-03-22T01:42:38.951Z,7.25
2023-03-22T01:45:15.018Z,7.13
2023-03-22T01:47:52.430Z,7.18
2023-03-22T01:50:19.593Z,7.19
2023-03-22T01:52:46.104Z,6.98
2023-03-22T01:55:13.018Z,7.06
2023-03-22T01:57:42.072Z,6.89
2023-03-22T02:00:13.868Z,6.86
2023-03-22T02:02:40.555Z,6.77
2023-03-22T02:05:07.186Z,6.67
2023-03-22T02:07:33.594Z,6.67
2023-03-22T02:10:02.055Z,6.68
2023-03-22T02:12:37.451Z,6.81
2023-03-22T02:15:22.129Z,6.75
2023-03-22T02:17:59.766Z,6.75
2023-03-22T02:20:45.164Z,6.64
2023-03-22T02:23:21.022Z,6.77
2023-03-22T02:26:25.948Z,6.71
2023-03-22T02:29:16.333Z,6.49
2023-03-22T02:32:21.820Z,6.48
2023-03-22T02:34:57.466Z,6.41
2023-03-22T02:37:34.999Z,6.50
2023-03-22T02:40:10.701Z,6.40
2023-03-22T02:43:05.226Z,6.28
2023-03-22T02:45:36.859Z,6.31
2023-03-22T02:48:12.978Z,6.23
2023-03-22T02:50:51.457Z,6.31
2023-03-22T02:53:35.472Z,6.19
2023-03-22T02:56:13.478Z,6.24
2023-03-22T02:58:46.930Z,6.24
2023-03-22T03:01:18.469Z,6.25
2023-03-22T03:03:48.147Z,6.06
2023-03-22T03:06:18.767Z,6.12
2023-03-22T03:08:46.777Z,6.04
2023-03-22T03:11:13.543Z,6.02
2023-03-22T03:13:40.024Z,6.11
2023-03-22T03:16:07.718Z,6.20
2023-03-22T03:19:00.224Z,6.10
2023-03-22T03:21:45.280Z,6.13
2023-03-22T03:24:20.212Z,6.08
2023-03-22T03:27:02.254Z,6.18
2023-03-22T03:29:47.298Z,6.12
2023-03-22T03:32:19.380Z,6.09
2023-03-22T03:34:57.806Z,6.03
2023-03-22T03:37:28.645Z,6.12
2023-03-22T03:40:09.517Z,6.07
2023-03-22T03:42:38.299Z,6.09
2023-03-22T03:45:06.227Z,5.93
2023-03-22T03:47:34.491Z,5.85
2023-03-22T03:50:00.896Z,5.85
2023-03-22T03:52:27.475Z,5.94
2023-03-22T03:54:55.096Z,5.87
2023-03-22T03:57:22.078Z,5.91
2023-03-22T03:59:48.521Z,5.78
2023-03-22T04:02:16.626Z,5.81
2023-03-22T04:04:43.160Z,5.82
2023-03-22T04:07:09.577Z,5.73
2023-03-22T04:09:37.965Z,5.76
2023-03-22T04:12:04.609Z,5.62
2023-03-22T04:14:31.134Z,5.74
2023-03-22T04:16:57.707Z,5.71
2023-03-22T04:19:24.179Z,5.63
2023-03-22T04:21:53.070Z,5.70
2023-03-22T04:24:21.525Z,5.60
2023-03-22T04:26:47.938Z,5.63
2023-03-22T04:29:14.471Z,5.60
2023-03-22T04:31:40.903Z,5.60
2023-03-22T04:34:07.390Z,5.64
2023-03-22T04:36:39.399Z,5.51
2023-03-22T04:39:08.774Z,5.54
2023-03-22T04:41:35.919Z,5.55
2023-03-22T04:44:02.988Z,5.63
2023-03-22T04:46:34.760Z,5.72
2023-03-22T04:49:01.541Z,5.66
2023-03-22T04:51:28.390Z,5.73
2023-03-22T04:53:54.830Z,5.83
2023-03-22T04:56:21.806Z,5.85
2023-03-22T04:58:48.243Z,5.92
2023-03-22T05:01:15.946Z,5.98
2023-03-22T05:03:51.523Z,6.01
2023-03-22T05:06:18.116Z,6.06
2023-03-22T05:08:44.586Z,6.10
2023-03-22T05:11:14.267Z,6.06
2023-03-22T05:13:40.784Z,6.18
2023-03-22T05:16:08.525Z,6.21
2023-03-22T05:18:37.957Z,6.18
2023-03-22T05:21:06.790Z,6.31
2023-03-22T05:23:33.269Z,6.42
2023-03-22T05:26:01.610Z,6.72
2023-03-22T05:28:28.518Z,6.79
2023-03-22T05:30:57.101Z,6.78
2023-03-22T05:33:23.740Z,6.83
2023-03-22T05:35:51.143Z,6.87
2023-03-22T05:38:17.869Z,6.86
2023-03-22T05:40:44.838Z,6.93
2023-03-22T05:43:11.298Z,6.97
2023-03-22T05:45:37.880Z,6.98
2023-03-22T05:48:04.398Z,7.03
2023-03-22T05:50:30.893Z,7.04
2023-03-22T05:52:57.760Z,7.09
2023-03-22T05:55:24.437Z,7.11
2023-03-22T05:57:51.425Z,7.16
2023-03-22T06:00:18.636Z,7.20
2023-03-22T06:02:47.731Z,7.22
2023-03-22T06:05:15.846Z,7.23
2023-03-22T06:07:43.014Z,7.26
2023-03-22T06:10:12.798Z,7.31
2023-03-22T06:12:39.345Z,7.37
2023-03-22T06:15:06.394Z,7.39
2023-03-22T06:17:32.943Z,7.41
2023-03-22T06:19:59.608Z,7.47
2023-03-22T06:22:26.288Z,7.53
2023-03-22T06:24:52.685Z,7.55
2023-03-22T06:27:19.144Z,7.63
2023-03-22T06:29:50.605Z,7.67
2023-03-22T06:32:17.024Z,7.73
2023-03-22T06:34:43.996Z,7.80
2023-03-22T06:37:10.377Z,7.86
2023-03-22T06:39:36.914Z,7.89
2023-03-22T06:42:03.408Z,8.02
2023-03-22T06:44:29.847Z,8.11
2023-03-22T06:46:56.305Z,8.23
2023-03-22T06:49:22.778Z,8.35
2023-03-22T06:51:49.182Z,8.45
2023-03-22T06:54:16.718Z,8.54
2023-03-22T06:56:43.170Z,8.69
2023-03-22T06:59:09.613Z,8.81
2023-03-22T07:01:36.348Z,8.94
2023-03-22T07:04:02.920Z,9.04
2023-03-22T07:06:30.847Z,9.14
2023-03-22T07:08:57.275Z,9.25
2023-03-22T07:11:25.807Z,9.34
2023-03-22T07:13:55.362Z,9.38
2023-03-22T07:16:22.382Z,9.44
2023-03-22T07:18:49.019Z,9.47
2023-03-22T07:21:15.662Z,9.53
2023-03-22T07:23:42.219Z,9.62
2023-03-22T07:26:08.723Z,9.71
2023-03-22T07:28:35.425Z,9.77
2023-03-22T07:31:03.768Z,9.81
2023-03-22T07:33:30.482Z,9.90
2023-03-22T07:35:56.960Z,10.03
2023-03-22T07:38:23.562Z,10.10
2023-03-22T07:40:54.636Z,10.22
2023-03-22T07:43:21.623Z,10.26
2023-03-22T07:45:52.105Z,10.36
2023-03-22T07:48:21.829Z,10.41
2023-03-22T07:50:49.077Z,10.43
2023-03-22T07:53:15.541Z,10.49
2023-03-22T07:55:45.182Z,10.56
2023-03-22T07:58:11.614Z,10.63
2023-03-22T08:00:38.529Z,10.69
2023-03-22T08:03:05.780Z,10.75
2023-03-22T08:05:32.360Z,10.80
2023-03-22T08:07:58.785Z,10.90
2023-03-22T08:10:25.582Z,11.00
2023-03-22T08:12:51.977Z,11.10
2023-03-22T08:15:18.504Z,11.21
2023-03-22T08:17:44.931Z,11.34
2023-03-22T08:20:12.834Z,11.44
2023-03-22T08:22:39.455Z,11.47
2023-03-22T08:25:06.361Z,11.57
2023-03-22T08:27:32.829Z,11.61
2023-03-22T08:29:59.290Z,11.78
2023-03-22T08:32:25.850Z,11.89
2023-03-22T08:34:52.711Z,12.11
2023-03-22T08:37:22.137Z,12.21
2023-03-22T08:39:48.638Z,12.29
2023-03-22T08:42:15.391Z,12.38
2023-03-22T08:44:41.976Z,12.51
2023-03-22T08:47:08.422Z,12.52
2023-03-22T08:49:34.944Z,12.54
2023-03-22T08:52:01.405Z,12.65
2023-03-22T08:54:33.313Z,12.56
2023-03-22T08:56:59.744Z,12.66
2023-03-22T08:59:26.206Z,12.60
2023-03-22T09:01:52.745Z,12.71
2023-03-22T09:04:19.408Z,12.82
2023-03-22T09:06:46.987Z,12.76
2023-03-22T09:09:13.648Z,12.82
2023-03-22T09:11:42.414Z,12.93
2023-03-22T09:14:09.624Z,12.89
2023-03-22T09:16:36.256Z,12.89
2023-03-22T09:19:03.228Z,13.14
2023-03-22T09:21:32.423Z,13.28
2023-03-22T09:23:58.906Z,13.29
2023-03-22T09:26:25.607Z,13.32
2023-03-22T09:28:52.193Z,13.44
2023-03-22T09:31:20.557Z,13.75
2023-03-22T09:33:47.325Z,13.91
2023-03-22T09:36:13.960Z,14.01
2023-03-22T09:38:41.290Z,14.00
2023-03-22T09:41:13.747Z,13.85
2023-03-22T09:43:43.948Z,14.08
2023-03-22T09:46:15.055Z,14.05
2023-03-22T09:48:43.410Z,14.02
2023-03-22T09:51:40.690Z,13.89
2023-03-22T09:54:21.428Z,13.72
2023-03-22T09:56:53.466Z,13.80
2023-03-22T09:59:44.394Z,13.65
2023-03-22T10:02:35.880Z,13.87
2023-03-22T10:05:13.440Z,13.89
2023-03-22T10:08:01.784Z,13.99
2023-03-22T10:10:28.453Z,14.34
2023-03-22T10:13:07.712Z,14.57
2023-03-22T10:15:46.223Z,14.63
2023-03-22T10:19:00.914Z,15.02
2023-03-22T10:21:27.366Z,15.24
2023-03-22T10:24:15.283Z,15.38
2023-03-22T10:26:45.368Z,15.32
2023-03-22T10:29:21.035Z,15.30
2023-03-22T10:31:47.556Z,15.30
2023-03-22T10:34:29.300Z,15.30
2023-03-22T10:36:55.906Z,15.00
2023-03-22T10:39:25.252Z,14.91
2023-03-22T10:41:55.389Z,15.08
2023-03-22T10:44:23.817Z,15.07
2023-03-22T10:46:51.432Z,15.08
2023-03-22T10:49:28.629Z,14.96
2023-03-22T10:51:59.835Z,14.93
2023-03-22T10:54:26.650Z,14.94
2023-03-22T10:56:53.094Z,14.89
2023-03-22T10:59:45.690Z,14.98
2023-03-22T11:02:21.798Z,15.15
2023-03-22T11:04:53.924Z,15.13
2023-03-22T11:07:43.834Z,15.24
2023-03-22T11:10:10.153Z,15.25
2023-03-22T11:12:40.140Z,15.24
2023-03-22T11:15:11.075Z,15.36
2023-03-22T11:17:37.623Z,15.86
2023-03-22T11:20:09.754Z,15.93
2023-03-22T11:22:41.385Z,16.17
2023-03-22T11:25:21.378Z,16.28
2023-03-22T11:27:53.225Z,15.91
2023-03-22T11:30:20.236Z,15.81
2023-03-22T11:32:47.252Z,15.81
2023-03-22T11:35:15.016Z,15.76
2023-03-22T11:37:47.814Z,15.65
2023-03-22T11:40:23.779Z,15.77
2023-03-22T11:42:53.653Z,15.88
2023-03-22T11:45:31.686Z,15.95
2023-03-22T11:48:13.225Z,15.92
2023-03-22T11:50:40.758Z,16.05
2023-03-22T11:53:11.539Z,15.87
2023-03-22T11:55:38.344Z,16.09
2023-03-22T11:58:06.433Z,16.11
2023-03-22T12:00:37.521Z,16.22
2023-03-22T12:03:06.302Z,16.33
2023-03-22T12:05:34.390Z,16.30
2023-03-22T12:08:11.178Z,16.17
2023-03-22T12:10:47.234Z,16.28
2023-03-22T12:13:26.909Z,16.51
2023-03-22T12:15:56.796Z,16.19
2023-03-22T12:18:29.896Z,16.27
2023-03-22T12:21:01.049Z,16.59
2023-03-22T12:23:32.170Z,16.58
2023-03-22T12:26:02.690Z,16.83
2023-03-22T12:28:34.572Z,16.96
2023-03-22T12:31:03.658Z,17.05
2023-03-22T12:33:33.224Z,16.70
2023-03-22T12:36:02.694Z,16.72
2023-03-22T12:38:46.425Z,16.65
2023-03-22T12:41:17.406Z,16.76
2023-03-22T12:43:53.400Z,16.90
2023-03-22T12:46:23.882Z,17.04
2023-03-22T12:49:20.135Z,17.25
2023-03-22T12:51:49.643Z,17.42
2023-03-22T12:54:17.646Z,17.17
2023-03-22T12:56:47.137Z,16.83
2023-03-22T12:59:20.571Z,16.91
2023-03-22T13:02:01.399Z,17.29
2023-03-22T13:04:36.410Z,17.37
2023-03-22T13:07:27.317Z,17.35
2023-03-22T13:09:53.747Z,17.39
2023-03-22T13:12:20.281Z,17.21
2023-03-22T13:14:56.866Z,17.25
2023-03-22T13:17:23.189Z,17.16
2023-03-22T13:20:23.604Z,17.41
2023-03-22T13:22:49.947Z,17.34
2023-03-22T13:25:17.099Z,17.47
2023-03-22T13:27:50.050Z,17.20
2023-03-22T13:30:41.538Z,17.46
2023-03-22T13:33:11.129Z,17.56
2023-03-22T13:35:44.095Z,18.10
2023-03-22T13:38:21.154Z,17.79
2023-03-22T13:40:56.578Z,17.76
2023-03-22T13:43:25.949Z,17.78
2023-03-22T13:46:17.807Z,17.85
2023-03-22T13:48:47.261Z,17.67
2023-03-22T13:51:31.713Z,17.54
2023-03-22T13:54:14.004Z,17.50
2023-03-22T13:56:41.929Z,17.39
2023-03-22T13:59:22.679Z,17.27
2023-03-22T14:01:55.983Z,17.31
2023-03-22T14:04:30.570Z,17.23
2023-03-22T14:07:06.967Z,17.18
2023-03-22T14:09:44.085Z,17.15
2023-03-22T14:12:18.170Z,17.12
2023-03-22T14:14:48.439Z,17.10
2023-03-22T14:17:27.292Z,17.15
2023-03-22T14:19:55.087Z,17.04
